Time;durP1;ratioP1;P1;durP2;ratioP2;P2;SDS_P1;SDS_P2;PMS_P1;PMS_P2;Temp;Humidity;BMP_temperature;BMP_pressure;BME280_temperature;BME280_humidity;BME280_pressure;Samples;Min_cycle;Max_cycle;Signal;HPM_P1;HPM_P2
2021/11/28 00:00:12;;;;;;;;;3.00;3.00;;;;;13.20;100.00;99269.38;5054640;28;45316;-80
2021/11/28 00:02:37;;;;;;;;;2.00;2.00;;;;;13.13;100.00;99263.00;5044205;28;45623;-80
2021/11/28 00:05:05;;;;;;;;;2.00;2.00;;;;;13.29;100.00;99270.28;5046848;28;45287;-80
2021/11/28 00:12:47;;;;;;;;;3.25;2.00;;;;;12.90;100.00;99262.69;5063761;27;45460;-80
2021/11/28 00:15:17;;;;;;;;;3.50;2.00;;;;;12.96;100.00;99279.78;5065087;28;45418;-80
2021/11/28 00:17:43;;;;;;;;;2.00;2.00;;;;;12.98;100.00;99281.28;5079246;28;45712;-80
2021/11/28 00:20:12;;;;;;;;;1.00;1.00;;;;;12.88;100.00;99285.00;5060127;28;45675;-81
2021/11/28 00:22:39;;;;;;;;;2.00;2.00;;;;;12.93;100.00;99272.97;5060255;28;45746;-81
2021/11/28 00:25:06;;;;;;;;;4.00;2.25;;;;;12.98;100.00;99273.34;5059717;28;45330;-80
2021/11/28 00:27:32;;;;;;;;;5.25;2.00;;;;;12.96;100.00;99269.19;5048167;28;45366;-80
2021/11/28 00:29:57;;;;;;;;;3.50;3.50;;;;;13.02;100.00;99276.50;5058631;28;45400;-80
2021/11/28 00:32:23;;;;;;;;;5.25;3.00;;;;;12.77;100.00;99280.78;5060123;28;45366;-80
2021/11/28 00:34:49;;;;;;;;;1.00;1.00;;;;;12.72;100.00;99272.47;5061485;28;45381;-80
2021/11/28 00:37:15;;;;;;;;;2.00;1.50;;;;;12.75;100.00;99277.44;5079063;28;45335;-80
2021/11/28 00:39:42;;;;;;;;;4.00;2.50;;;;;12.83;100.00;99280.19;5069282;28;47328;-80
2021/11/28 00:42:08;;;;;;;;;1.50;1.50;;;;;12.63;100.00;99284.81;5060223;28;45333;-80
2021/11/28 00:44:34;;;;;;;;;5.25;3.00;;;;;12.68;100.00;99273.75;5060594;28;45343;-80
2021/11/28 00:46:59;;;;;;;;;3.00;2.00;;;;;12.91;100.00;99268.81;5044842;28;45227;-80
2021/11/28 00:49:26;;;;;;;;;10.75;5.50;;;;;12.72;100.00;99262.72;5053105;28;45291;-80
2021/11/28 00:51:56;;;;;;;;;5.00;1.00;;;;;12.83;100.00;99276.72;5060258;28;45673;-80
2021/11/28 00:54:23;;;;;;;;;6.75;4.00;;;;;12.93;100.00;99275.59;5060080;28;45375;-80
2021/11/28 00:56:49;;;;;;;;;4.00;2.00;;;;;12.90;100.00;99283.88;5064032;28;45430;-80
2021/11/28 00:59:15;;;;;;;;;3.00;1.00;;;;;12.86;100.00;99290.47;5064009;28;46546;-80
2021/11/28 01:01:40;;;;;;;;;2.00;2.00;;;;;12.90;100.00;99291.00;5062072;28;45319;-80
2021/11/28 01:04:07;;;;;;;;;3.00;1.75;;;;;13.02;100.00;99289.75;5054575;28;45422;-80
2021/11/28 01:06:32;;;;;;;;;3.00;1.50;;;;;13.00;100.00;99291.75;5050921;28;45417;-80
2021/11/28 01:08:58;;;;;;;;;2.00;2.00;;;;;12.98;100.00;99301.66;5058457;28;46728;-80
2021/11/28 01:11:24;;;;;;;;;5.00;2.00;;;;;13.03;100.00;99302.84;5057930;28;45364;-80
2021/11/28 01:13:50;;;;;;;;;5.50;2.00;;;;;13.12;100.00;99301.09;5065146;28;45374;-80
2021/11/28 01:16:15;;;;;;;;;0.75;0.75;;;;;13.15;100.00;99306.13;5059020;28;45398;-80
2021/11/28 01:18:41;;;;;;;;;5.75;3.00;;;;;13.07;100.00;99306.88;5063483;28;46883;-80
2021/11/28 01:21:06;;;;;;;;;7.00;2.00;;;;;12.84;100.00;99303.03;5059448;28;45332;-80
2021/11/28 01:23:33;;;;;;;;;6.25;3.00;;;;;12.74;100.00;99307.59;5059553;28;45302;-80
2021/11/28 01:25:58;;;;;;;;;2.75;2.00;;;;;12.66;100.00;99316.28;5052607;28;46832;-80
2021/11/28 01:28:24;;;;;;;;;4.50;1.25;;;;;12.62;100.00;99314.94;5064235;28;46288;-80
2021/11/28 01:30:49;;;;;;;;;5.00;1.00;;;;;12.65;100.00;99319.94;5079921;28;45260;-80
2021/11/28 01:33:15;;;;;;;;;2.00;2.00;;;;;12.71;100.00;99323.78;5083591;27;45247;-79
2021/11/28 01:35:40;;;;;;;;;2.25;1.00;;;;;12.89;100.00;99319.31;5076364;28;45565;-79
2021/11/28 01:38:06;;;;;;;;;1.00;1.00;;;;;12.66;100.00;99331.34;5058327;28;48005;-79
2021/11/28 01:40:32;;;;;;;;;3.00;1.00;;;;;11.91;100.00;99341.28;5059020;28;45440;-79
2021/11/28 01:43:08;;;;;;;;;3.50;2.00;;;;;11.80;100.00;99338.00;5059708;28;45449;-79
2021/11/28 01:45:35;;;;;;;;;3.50;2.00;;;;;11.69;100.00;99344.25;5058504;28;45393;-78
2021/11/28 01:48:04;;;;;;;;;3.00;1.75;;;;;12.06;100.00;99351.38;5050397;28;45416;-79
2021/11/28 01:50:31;;;;;;;;;2.00;1.00;;;;;12.21;100.00;99342.78;5054748;28;45413;-79
2021/11/28 01:52:58;;;;;;;;;5.00;2.00;;;;;12.24;100.00;99334.56;5058186;28;45368;-79
2021/11/28 01:55:27;;;;;;;;;1.00;1.00;;;;;12.24;100.00;99341.66;5055018;28;45363;-79
2021/11/28 01:57:53;;;;;;;;;0.00;0.00;;;;;12.15;100.00;99334.63;5072190;28;47088;-79
2021/11/28 02:00:24;;;;;;;;;1.75;1.50;;;;;12.15;100.00;99343.38;5079484;28;45169;-79
2021/11/28 02:02:51;;;;;;;;;2.50;1.00;;;;;12.02;100.00;99345.53;5079377;28;45412;-79
2021/11/28 02:05:20;;;;;;;;;3.25;0.75;;;;;11.80;100.00;99353.84;5042147;28;45334;-78
2021/11/28 02:07:46;;;;;;;;;1.25;1.00;;;;;11.86;100.00;99358.56;5046768;28;48461;-79
2021/11/28 02:10:12;;;;;;;;;4.00;0.75;;;;;12.10;100.00;99363.34;5059592;28;45474;-79
2021/11/28 02:12:38;;;;;;;;;2.00;0.50;;;;;12.06;100.00;99369.91;5058905;28;45365;-79
2021/11/28 02:15:06;;;;;;;;;5.50;1.00;;;;;11.85;100.00;99370.94;5072172;28;45402;-79
2021/11/28 02:17:32;;;;;;;;;4.00;1.00;;;;;11.66;100.00;99373.63;5047223;28;48367;-79
2021/11/28 02:19:57;;;;;;;;;2.50;0.00;;;;;11.69;100.00;99360.13;5058886;28;45280;-79
2021/11/28 02:22:22;;;;;;;;;0.75;0.00;;;;;11.76;100.00;99370.97;5059918;28;45330;-79
2021/11/28 02:24:48;;;;;;;;;0.75;0.75;;;;;11.70;100.00;99380.31;5062506;28;45259;-79
2021/11/28 02:27:14;;;;;;;;;2.25;1.00;;;;;11.86;100.00;99382.34;5063363;28;46545;-79
2021/11/28 02:29:41;;;;;;;;;2.75;1.00;;;;;11.71;100.00;99381.97;5082727;28;45376;-79
2021/11/28 02:32:07;;;;;;;;;0.75;0.75;;;;;11.76;100.00;99387.69;5065316;28;45482;-79
2021/11/28 02:34:34;;;;;;;;;9.75;3.00;;;;;11.77;100.00;99381.41;5075972;28;45256;-79
2021/11/28 02:37:00;;;;;;;;;5.00;0.75;;;;;11.75;100.00;99383.38;5082872;28;45382;-79
2021/11/28 02:39:26;;;;;;;;;1.00;1.00;;;;;11.80;100.00;99375.84;5076392;28;45442;-79
2021/11/28 02:41:51;;;;;;;;;1.75;1.25;;;;;11.76;100.00;99382.38;5075326;28;45318;-79
2021/11/28 02:44:17;;;;;;;;;1.75;1.00;;;;;11.87;100.00;99381.38;5078444;28;45298;-79
2021/11/28 02:46:44;;;;;;;;;0.75;0.75;;;;;12.09;100.00;99378.38;5063303;28;45239;-79
2021/11/28 02:49:10;;;;;;;;;3.00;2.00;;;;;11.99;100.00;99375.78;5069419;28;45220;-79
2021/11/28 02:51:37;;;;;;;;;5.50;1.25;;;;;11.83;100.00;99366.81;5083232;28;45212;-77
2021/11/28 02:54:05;;;;;;;;;2.75;2.00;;;;;11.99;100.00;99381.06;5096140;28;44888;-79
2021/11/28 02:56:32;;;;;;;;;2.25;1.00;;;;;11.91;100.00;99380.97;5083276;28;45199;-79
2021/11/28 02:58:57;;;;;;;;;5.00;1.00;;;;;11.89;100.00;99372.34;5084472;28;45569;-80
2021/11/28 03:01:23;;;;;;;;;0.50;0.25;;;;;11.75;100.00;99380.72;5083018;28;45575;-79
2021/11/28 03:03:52;;;;;;;;;0.00;0.00;;;;;11.96;100.00;99391.94;5063053;28;45401;-79
2021/11/28 03:06:18;;;;;;;;;1.00;1.00;;;;;11.99;100.00;99386.38;5050566;28;45588;-79
2021/11/28 03:08:44;;;;;;;;;1.00;1.00;;;;;11.90;100.00;99394.34;5056651;28;45703;-79
2021/11/28 03:11:12;;;;;;;;;3.00;0.00;;;;;14.22;100.00;99380.81;5054953;28;45367;-79
2021/11/28 03:13:43;;;;;;;;;0.75;0.75;;;;;13.63;100.00;99374.56;5063621;28;45173;-79
2021/11/28 03:16:12;;;;;;;;;0.00;0.00;;;;;12.44;100.00;99382.94;5061831;28;46347;-79
2021/11/28 03:18:37;;;;;;;;;0.25;0.00;;;;;11.96;100.00;99391.94;5061736;28;45307;-79
2021/11/28 03:21:15;;;;;;;;;5.00;1.00;;;;;11.86;100.00;99385.84;5050694;28;45450;-79
2021/11/28 03:23:43;;;;;;;;;1.75;1.75;;;;;11.67;100.00;99385.88;5061530;28;45387;-79
2021/11/28 03:26:16;;;;;;;;;0.25;0.25;;;;;11.74;100.00;99394.91;5061612;28;45390;-79
2021/11/28 03:28:45;;;;;;;;;1.75;1.00;;;;;11.45;100.00;99392.34;5061420;28;45362;-80
2021/11/28 03:31:10;;;;;;;;;2.50;2.00;;;;;11.42;100.00;99400.53;5045635;28;45393;-79
2021/11/28 03:33:38;;;;;;;;;2.00;0.00;;;;;11.59;100.00;99399.81;5060993;28;45421;-80
2021/11/28 03:36:04;;;;;;;;;2.50;1.00;;;;;11.51;100.00;99393.56;5061583;28;46134;-80
2021/11/28 03:38:30;;;;;;;;;1.50;0.75;;;;;11.56;100.00;99396.63;5060905;28;45279;-80
2021/11/28 03:40:56;;;;;;;;;3.25;1.25;;;;;14.02;100.00;99390.84;5044359;28;45431;-80
2021/11/28 03:43:21;;;;;;;;;2.00;0.00;;;;;12.77;100.00;99392.03;5049082;28;45482;-79
2021/11/28 03:45:47;;;;;;;;;1.00;1.00;;;;;12.72;100.00;99400.44;5059809;28;46221;-80
2021/11/28 03:48:12;;;;;;;;;3.50;0.50;;;;;12.75;100.00;99405.44;5061431;28;45504;-80
2021/11/28 03:50:37;;;;;;;;;1.00;0.00;;;;;12.74;100.00;99398.50;5056960;28;45260;-79
2021/11/28 03:53:03;;;;;;;;;1.00;0.00;;;;;12.57;100.00;99401.91;5061257;28;45319;-79
2021/11/28 03:55:29;;;;;;;;;0.00;0.00;;;;;12.61;100.00;99410.41;5061760;28;45513;-80
2021/11/28 03:57:54;;;;;;;;;1.00;1.00;;;;;12.68;100.00;99412.31;5049320;28;45501;-80
2021/11/28 04:00:20;;;;;;;;;0.50;0.25;;;;;12.44;100.00;99417.34;5076781;28;45699;-80
2021/11/28 04:02:47;;;;;;;;;1.00;1.00;;;;;12.35;100.00;99411.13;5061102;28;45497;-80
2021/11/28 04:05:13;;;;;;;;;1.00;0.00;;;;;12.35;100.00;99416.41;5060849;28;45581;-80
2021/11/28 04:07:38;;;;;;;;;0.00;0.00;;;;;12.45;100.00;99419.03;5059706;28;45502;-80
2021/11/28 04:10:06;;;;;;;;;0.00;0.00;;;;;12.60;100.00;99414.03;5060901;28;45319;-80
2021/11/28 04:12:31;;;;;;;;;0.00;0.00;;;;;12.17;100.00;99420.00;5062385;28;45461;-80
2021/11/28 04:14:57;;;;;;;;;1.00;0.00;;;;;12.28;100.00;99422.44;5079778;28;46983;-80
2021/11/28 04:17:24;;;;;;;;;0.00;0.00;;;;;12.41;100.00;99428.22;5051536;28;45563;-80
2021/11/28 04:19:51;;;;;;;;;0.00;0.00;;;;;12.56;100.00;99415.34;5052201;28;45323;-80
2021/11/28 04:22:16;;;;;;;;;1.50;0.00;;;;;12.48;100.00;99425.81;5057689;28;45345;-80
2021/11/28 04:24:42;;;;;;;;;0.50;0.00;;;;;12.38;100.00;99427.69;5069616;28;46433;-80
2021/11/28 04:27:07;;;;;;;;;1.00;0.00;;;;;12.32;100.00;99429.09;5053350;28;45310;-80
2021/11/28 04:29:33;;;;;;;;;0.00;0.00;;;;;12.20;100.00;99420.50;5052351;28;45326;-80
2021/11/28 04:31:59;;;;;;;;;0.75;0.00;;;;;12.34;100.00;99421.84;5060336;28;45208;-80
2021/11/28 04:34:24;;;;;;;;;0.00;0.00;;;;;12.29;100.00;99421.47;5060382;28;45248;-80
2021/11/28 04:36:50;;;;;;;;;0.50;0.25;;;;;12.26;100.00;99425.25;5046945;28;45457;-80
2021/11/28 04:39:16;;;;;;;;;0.00;0.00;;;;;12.23;100.00;99425.53;5049127;28;45488;-80
2021/11/28 04:41:41;;;;;;;;;2.50;0.75;;;;;12.24;100.00;99427.19;5060440;28;45484;-80
2021/11/28 04:44:07;;;;;;;;;1.00;0.00;;;;;12.29;100.00;99427.56;5059449;28;45475;-80
2021/11/28 04:46:32;;;;;;;;;0.00;0.00;;;;;12.05;100.00;99421.13;5057015;28;45573;-80
2021/11/28 04:48:59;;;;;;;;;0.50;0.50;;;;;12.02;100.00;99432.03;5059924;28;45380;-80
2021/11/28 04:51:24;;;;;;;;;1.75;0.00;;;;;11.75;100.00;99430.97;5060151;28;45461;-80
2021/11/28 04:53:49;;;;;;;;;0.50;0.50;;;;;11.71;100.00;99432.22;5055738;28;45427;-80
2021/11/28 04:56:15;;;;;;;;;1.00;1.00;;;;;11.74;100.00;99431.94;5061694;28;44852;-79
2021/11/28 04:58:40;;;;;;;;;6.00;1.00;;;;;11.69;100.00;99430.69;5078368;28;45381;-80
2021/11/28 05:01:05;;;;;;;;;0.25;0.25;;;;;11.69;100.00;99431.53;5075464;27;47542;-79
2021/11/28 05:03:31;;;;;;;;;0.00;0.00;;;;;11.81;100.00;99429.59;5058515;28;47110;-79
2021/11/28 05:05:56;;;;;;;;;3.50;1.00;;;;;11.81;100.00;99426.94;5045747;28;45441;-80
2021/11/28 05:08:21;;;;;;;;;0.00;0.00;;;;;11.72;100.00;99431.25;5059974;28;45545;-80
2021/11/28 05:10:47;;;;;;;;;1.75;0.00;;;;;11.86;100.00;99440.56;5058449;28;45337;-80
2021/11/28 05:13:12;;;;;;;;;2.00;0.50;;;;;11.67;100.00;99432.63;5070877;28;45278;-80
2021/11/28 05:15:37;;;;;;;;;2.00;0.00;;;;;11.66;100.00;99434.44;5059773;28;45316;-80
2021/11/28 05:18:03;;;;;;;;;0.50;0.00;;;;;11.42;100.00;99445.47;5059686;28;45333;-80
2021/11/28 05:20:28;;;;;;;;;1.50;0.75;;;;;11.28;100.00;99438.00;5046424;28;45512;-80
2021/11/28 05:22:54;;;;;;;;;0.00;0.00;;;;;11.45;100.00;99445.22;5056301;28;46763;-80
2021/11/28 05:25:19;;;;;;;;;4.00;0.00;;;;;11.72;100.00;99454.22;5049719;28;45300;-80
2021/11/28 05:27:47;;;;;;;;;2.00;0.00;;;;;11.56;100.00;99449.50;5059328;28;45260;-79
2021/11/28 05:30:13;;;;;;;;;0.00;0.00;;;;;11.68;100.00;99455.47;5061414;28;45335;-79
2021/11/28 05:32:39;;;;;;;;;0.75;0.00;;;;;11.65;100.00;99451.31;5058415;28;45658;-79
2021/11/28 05:35:05;;;;;;;;;1.50;0.25;;;;;11.48;100.00;99450.19;5051489;28;45410;-79
2021/11/28 05:37:30;;;;;;;;;0.00;0.00;;;;;11.53;100.00;99463.00;5059986;28;45452;-79
2021/11/28 05:39:56;;;;;;;;;0.00;0.00;;;;;11.69;100.00;99463.25;5050090;28;45425;-79
2021/11/28 05:42:22;;;;;;;;;0.00;0.00;;;;;11.65;100.00;99467.16;5045073;28;45237;-80
2021/11/28 05:44:47;;;;;;;;;0.00;0.00;;;;;11.30;100.00;99462.44;5071967;28;45222;-80
2021/11/28 05:47:12;;;;;;;;;1.50;0.75;;;;;11.27;100.00;99477.75;5055693;28;45441;-80
2021/11/28 05:49:38;;;;;;;;;1.00;1.00;;;;;11.30;100.00;99461.59;5057615;28;45165;-80
2021/11/28 05:52:03;;;;;;;;;2.25;0.00;;;;;11.36;100.00;99458.44;5057624;28;47281;-80
2021/11/28 05:54:29;;;;;;;;;2.25;1.50;;;;;11.31;100.00;99473.84;5058405;28;45314;-80
2021/11/28 05:56:54;;;;;;;;;1.50;1.00;;;;;11.31;100.00;99474.69;5067184;28;45244;-80
2021/11/28 05:59:20;;;;;;;;;0.00;0.00;;;;;11.42;100.00;99482.47;5072452;28;45574;-79
2021/11/28 06:01:45;;;;;;;;;3.50;1.00;;;;;13.92;100.00;99472.44;5055709;28;47183;-80
2021/11/28 06:04:10;;;;;;;;;1.00;1.00;;;;;13.63;100.00;99464.75;5063121;28;45330;-80
2021/11/28 06:06:36;;;;;;;;;1.00;1.00;;;;;12.44;100.00;99480.88;5061801;28;45248;-80
2021/11/28 06:09:02;;;;;;;;;0.00;0.00;;;;;11.92;100.00;99485.81;5055947;28;45359;-80
2021/11/28 06:11:27;;;;;;;;;1.00;0.50;;;;;11.48;100.00;99484.56;5052094;28;45375;-80
2021/11/28 06:13:52;;;;;;;;;1.00;1.00;;;;;11.27;100.00;99490.97;5060342;28;45447;-80
2021/11/28 06:16:18;;;;;;;;;1.00;1.00;;;;;11.23;100.00;99496.53;5055858;28;45504;-79
2021/11/28 06:18:44;;;;;;;;;0.25;0.25;;;;;11.25;100.00;99491.09;5052533;28;45477;-80
2021/11/28 06:21:09;;;;;;;;;1.50;0.75;;;;;11.35;100.00;99501.69;5058879;28;45357;-80
2021/11/28 06:23:34;;;;;;;;;2.50;1.00;;;;;11.44;100.00;99499.03;5062303;28;45364;-80
2021/11/28 06:26:00;;;;;;;;;1.75;0.75;;;;;11.15;100.00;99490.25;5062365;28;45433;-80
2021/11/28 06:28:25;;;;;;;;;2.25;0.00;;;;;11.23;100.00;99499.16;5061343;28;45386;-80
2021/11/28 06:30:51;;;;;;;;;2.75;0.25;;;;;11.19;100.00;99496.94;5062333;28;45428;-80
2021/11/28 06:33:17;;;;;;;;;5.00;1.00;;;;;11.31;100.00;99506.41;5062424;28;45430;-80
2021/11/28 06:35:42;;;;;;;;;1.00;1.00;;;;;11.41;100.00;99509.88;5066830;28;45197;-80
2021/11/28 06:38:08;;;;;;;;;1.00;1.00;;;;;11.28;100.00;99511.16;5060646;28;45213;-80
2021/11/28 06:40:33;;;;;;;;;2.00;1.00;;;;;11.36;100.00;99509.47;5062074;28;45344;-80
2021/11/28 06:42:58;;;;;;;;;3.25;0.25;;;;;11.41;100.00;99520.47;5062513;28;45398;-80
2021/11/28 06:45:24;;;;;;;;;2.00;1.00;;;;;11.44;100.00;99512.25;5062196;28;45386;-80
2021/11/28 06:47:49;;;;;;;;;2.50;1.25;;;;;11.41;100.00;99515.16;5061332;28;45196;-80
2021/11/28 06:50:15;;;;;;;;;0.00;0.00;;;;;11.34;100.00;99519.34;5057567;28;46407;-80
2021/11/28 06:52:41;;;;;;;;;1.00;1.00;;;;;11.24;100.00;99521.16;5053443;28;45359;-79
2021/11/28 06:55:06;;;;;;;;;1.00;1.00;;;;;11.45;100.00;99521.03;5061842;28;45244;-79
2021/11/28 06:57:33;;;;;;;;;3.25;1.00;;;;;11.59;100.00;99532.00;5062864;28;45461;-80
2021/11/28 06:59:58;;;;;;;;;2.00;1.00;;;;;11.59;100.00;99533.81;5052697;28;45552;-79
2021/11/28 07:02:24;;;;;;;;;2.25;0.75;;;;;11.46;100.00;99528.81;5059994;28;45467;-79
2021/11/28 07:04:49;;;;;;;;;1.00;1.00;;;;;11.58;100.00;99546.19;5054581;28;45418;-79
2021/11/28 07:07:15;;;;;;;;;0.00;0.00;;;;;11.57;100.00;99533.94;5054379;28;45342;-79
2021/11/28 07:09:40;;;;;;;;;0.50;0.50;;;;;11.70;100.00;99538.97;5065803;28;46050;-79
2021/11/28 07:12:06;;;;;;;;;1.00;0.00;;;;;11.83;100.00;99544.84;5049381;28;45419;-79
2021/11/28 07:14:32;;;;;;;;;0.00;0.00;;;;;11.97;100.00;99546.22;5069451;28;45352;-79
2021/11/28 07:16:57;;;;;;;;;4.00;0.25;;;;;11.89;100.00;99546.94;5080570;28;45336;-81
2021/11/28 07:19:23;;;;;;;;;0.50;0.50;;;;;11.99;100.00;99545.09;5081807;28;45350;-79
2021/11/28 07:21:48;;;;;;;;;2.00;0.25;;;;;12.13;100.00;99558.84;5077665;28;45509;-79
2021/11/28 07:24:14;;;;;;;;;0.75;0.75;;;;;12.09;100.00;99550.38;5059816;28;45236;-80
2021/11/28 07:26:39;;;;;;;;;2.25;0.00;;;;;12.05;100.00;99561.38;5061350;28;45351;-80
2021/11/28 07:29:04;;;;;;;;;2.00;0.25;;;;;12.23;100.00;99557.84;5061160;28;45314;-79
2021/11/28 07:31:30;;;;;;;;;1.50;0.25;;;;;12.41;100.00;99570.34;5061500;28;45462;-80
2021/11/28 07:33:55;;;;;;;;;0.00;0.00;;;;;12.53;100.00;99580.63;5058889;28;45184;-79
2021/11/28 07:36:21;;;;;;;;;0.00;0.00;;;;;12.40;100.00;99569.50;5048612;28;45746;-80
2021/11/28 07:38:46;;;;;;;;;0.75;0.00;;;;;12.29;100.00;99580.28;5057044;28;45992;-79
2021/11/28 07:41:11;;;;;;;;;1.00;1.00;;;;;12.32;100.00;99580.81;5061606;28;45605;-79
2021/11/28 07:43:37;;;;;;;;;0.25;0.00;;;;;12.17;100.00;99599.94;5062606;28;45536;-79
2021/11/28 07:46:03;;;;;;;;;0.50;0.50;;;;;12.34;100.00;99591.28;5061865;28;45590;-79
2021/11/28 07:48:30;;;;;;;;;0.00;0.00;;;;;11.97;100.00;99592.03;5047914;28;46325;-79
2021/11/28 07:50:58;;;;;;;;;0.00;0.00;;;;;12.23;100.00;99602.00;5047932;28;45599;-79
2021/11/28 07:53:23;;;;;;;;;0.50;0.00;;;;;12.04;100.00;99600.22;5073215;28;45445;-79
2021/11/28 07:55:49;;;;;;;;;1.75;1.00;;;;;12.18;100.00;99597.16;5077029;27;45540;-79
2021/11/28 07:58:14;;;;;;;;;1.25;1.00;;;;;12.19;100.00;99604.13;5050167;28;46450;-79
2021/11/28 08:00:39;;;;;;;;;2.00;0.00;;;;;12.21;100.00;99615.38;5058719;28;45442;-79
2021/11/28 08:03:05;;;;;;;;;5.00;0.25;;;;;12.23;100.00;99618.72;5061031;28;45322;-79
2021/11/28 08:05:31;;;;;;;;;1.75;1.00;;;;;12.24;100.00;99624.88;5061238;28;45279;-79
2021/11/28 08:07:56;;;;;;;;;1.00;1.00;;;;;12.17;100.00;99618.47;5060152;28;45616;-79
2021/11/28 08:10:22;;;;;;;;;1.00;1.00;;;;;12.29;100.00;99627.94;5060706;28;45525;-79
2021/11/28 08:12:47;;;;;;;;;2.00;0.00;;;;;12.27;100.00;99627.25;5069474;28;45376;-79
2021/11/28 08:15:16;;;;;;;;;2.00;0.00;;;;;12.33;100.00;99626.66;5053870;28;45397;-79
2021/11/28 08:17:43;;;;;;;;;1.25;0.25;;;;;12.47;100.00;99630.69;5063941;28;46069;-79
2021/11/28 08:20:09;;;;;;;;;2.00;0.00;;;;;12.55;100.00;99633.47;5046655;28;45563;-79
2021/11/28 08:22:36;;;;;;;;;1.00;1.00;;;;;12.68;100.00;99641.91;5061647;28;45282;-79
2021/11/28 08:25:01;;;;;;;;;1.00;1.00;;;;;12.47;100.00;99639.47;5055701;28;45334;-80
2021/11/28 08:27:27;;;;;;;;;1.50;0.25;;;;;12.42;100.00;99647.00;5048181;28;45492;-79
2021/11/28 08:29:53;;;;;;;;;1.25;1.00;;;;;12.49;100.00;99648.09;5060577;28;45460;-79
2021/11/28 08:32:19;;;;;;;;;1.50;0.25;;;;;12.38;100.00;99648.25;5047803;28;45367;-79
2021/11/28 08:34:44;;;;;;;;;1.00;1.00;;;;;12.35;100.00;99648.53;5057043;28;45826;-79
2021/11/28 08:37:10;;;;;;;;;0.00;0.00;;;;;12.42;100.00;99647.00;5048195;28;45541;-79
2021/11/28 08:39:36;;;;;;;;;2.00;1.00;;;;;12.52;100.00;99653.09;5062133;28;45284;-80
2021/11/28 08:42:07;;;;;;;;;0.00;0.00;;;;;12.42;100.00;99654.09;5059343;28;45389;-80
2021/11/28 08:44:33;;;;;;;;;0.50;0.00;;;;;12.32;100.00;99662.03;5061413;28;45374;-80
2021/11/28 08:46:58;;;;;;;;;1.00;1.00;;;;;12.30;100.00;99661.34;5060809;28;45355;-80
2021/11/28 08:49:24;;;;;;;;;1.00;0.00;;;;;12.47;100.00;99644.78;5063852;28;45396;-80
2021/11/28 08:51:49;;;;;;;;;2.25;1.00;;;;;12.36;100.00;99656.34;5064365;28;45333;-80
2021/11/28 08:54:14;;;;;;;;;4.25;1.00;;;;;12.41;100.00;99660.38;5080126;28;45597;-81
2021/11/28 08:56:42;;;;;;;;;1.75;1.75;;;;;12.42;100.00;99672.63;5072857;28;45464;-79
2021/11/28 08:59:07;;;;;;;;;2.00;1.00;;;;;12.28;100.00;99668.63;5069640;27;45329;-79
2021/11/28 09:01:32;;;;;;;;;2.00;1.00;;;;;12.28;100.00;99673.91;5059127;28;45729;-79
2021/11/28 09:03:58;;;;;;;;;1.50;1.00;;;;;12.29;100.00;99672.94;5056959;28;45469;-79
2021/11/28 09:06:23;;;;;;;;;1.75;1.00;;;;;12.38;100.00;99675.53;5046324;28;45220;-79
2021/11/28 09:08:49;;;;;;;;;3.00;2.00;;;;;12.54;100.00;99676.81;5059906;28;45232;-79
2021/11/28 09:11:15;;;;;;;;;5.00;1.00;;;;;12.47;100.00;99679.19;5055840;28;45409;-79
2021/11/28 09:13:40;;;;;;;;;4.75;1.50;;;;;12.40;100.00;99686.00;5060399;28;45295;-79
2021/11/28 09:16:10;;;;;;;;;4.00;1.50;;;;;12.34;100.00;99671.53;5048871;28;45687;-79
2021/11/28 09:18:44;;;;;;;;;2.00;2.00;;;;;12.32;100.00;99688.53;5058871;28;45434;-79
2021/11/28 09:21:11;;;;;;;;;1.00;1.00;;;;;12.19;100.00;99687.97;5045541;28;45520;-79
2021/11/28 09:26:20;;;;;;;;;3.00;3.00;;;;;12.19;100.00;99696.75;5057927;28;45774;-79
2021/11/28 09:28:46;;;;;;;;;2.00;2.00;;;;;12.26;100.00;99699.69;5059999;28;45211;-78
2021/11/28 09:31:11;;;;;;;;;3.75;1.75;;;;;12.27;100.00;99701.34;5061973;28;45626;-79
2021/11/28 09:33:39;;;;;;;;;4.25;1.00;;;;;12.38;100.00;99706.50;5063233;28;45236;-79
2021/11/28 09:36:06;;;;;;;;;1.00;1.00;;;;;12.40;100.00;99709.00;5060752;28;48111;-79
2021/11/28 09:38:31;;;;;;;;;5.00;1.50;;;;;12.29;100.00;99705.50;5060234;28;45446;-80
2021/11/28 09:41:02;;;;;;;;;1.00;1.00;;;;;12.32;100.00;99705.25;5064243;28;45552;-80
2021/11/28 09:43:29;;;;;;;;;2.50;1.00;;;;;12.38;100.00;99709.16;5060824;28;45348;-81
2021/11/28 09:45:55;;;;;;;;;6.00;2.00;;;;;12.11;100.00;99717.75;5061966;28;45380;-80
2021/11/28 09:48:24;;;;;;;;;2.25;2.00;;;;;12.43;100.00;99712.22;5060217;28;45541;-80
2021/11/28 09:50:50;;;;;;;;;8.00;2.75;;;;;12.71;100.00;99721.09;5061801;28;46456;-80
2021/11/28 09:53:17;;;;;;;;;7.00;2.00;;;;;12.62;100.00;99720.13;5062596;28;45429;-80
2021/11/28 09:55:43;;;;;;;;;3.50;1.75;;;;;12.56;100.00;99714.56;5063164;28;45492;-80
2021/11/28 09:58:09;;;;;;;;;3.75;3.00;;;;;12.64;100.00;99727.94;5063983;28;45430;-79
2021/11/28 10:00:35;;;;;;;;;5.25;2.50;;;;;12.64;100.00;99726.13;5064638;28;45318;-79
2021/11/28 10:03:01;;;;;;;;;4.25;2.00;;;;;12.50;100.00;99734.50;5059401;28;45270;-79
2021/11/28 10:05:26;;;;;;;;;9.50;3.00;;;;;12.42;100.00;99728.22;5062228;28;45579;-80
2021/11/28 10:07:52;;;;;;;;;7.75;4.00;;;;;12.38;100.00;99730.34;5066955;28;45490;-80
2021/11/28 10:10:20;;;;;;;;;3.50;3.00;;;;;12.27;100.00;99741.91;5062817;28;45445;-79
2021/11/28 10:12:50;;;;;;;;;5.50;5.50;;;;;12.35;100.00;99741.19;5060031;28;45422;-79
2021/11/28 10:15:20;;;;;;;;;4.50;2.50;;;;;12.13;100.00;99742.28;5055291;28;46273;-79
2021/11/28 10:17:46;;;;;;;;;5.00;4.50;;;;;12.07;100.00;99736.72;5076409;28;45696;-80
2021/11/28 10:20:14;;;;;;;;;6.50;4.00;;;;;12.21;100.00;99745.06;5067990;28;45434;-79
2021/11/28 10:22:41;;;;;;;;;9.00;2.00;;;;;12.13;100.00;99738.81;5044067;28;45275;-81
2021/11/28 10:25:16;;;;;;;;;6.50;3.00;;;;;12.05;100.00;99742.13;5062647;28;45350;-81
2021/11/28 10:27:45;;;;;;;;;6.00;3.00;;;;;12.03;100.00;99740.59;5049732;28;45331;-80
2021/11/28 10:30:30;;;;;;;;;4.50;2.00;;;;;11.88;100.00;99743.66;5063684;28;44948;-81
2021/11/28 10:33:03;;;;;;;;;4.00;2.75;;;;;11.98;100.00;99741.03;5057419;28;45631;-79
2021/11/28 10:35:29;;;;;;;;;6.25;5.00;;;;;12.09;100.00;99748.84;5054230;28;45558;-80
2021/11/28 10:37:54;;;;;;;;;8.00;3.00;;;;;11.99;100.00;99727.66;5073803;28;45366;-79
2021/11/28 10:40:26;;;;;;;;;5.00;5.00;;;;;12.03;100.00;99724.72;5064868;28;45421;-79
2021/11/28 10:43:10;;;;;;;;;8.50;6.00;;;;;12.14;100.00;99724.59;5060923;28;45560;-79
2021/11/28 10:45:51;;;;;;;;;7.00;6.00;;;;;12.29;100.00;99724.03;5063026;28;45624;-79
2021/11/28 10:48:24;;;;;;;;;14.25;6.50;;;;;12.36;100.00;99733.13;5060285;28;45733;-79
2021/11/28 10:50:51;;;;;;;;;5.75;5.00;;;;;12.25;100.00;99725.31;5044813;28;45451;-80
2021/11/28 10:53:20;;;;;;;;;6.00;3.00;;;;;12.35;100.00;99726.16;5063191;28;45455;-79
2021/11/28 10:55:51;;;;;;;;;6.25;4.00;;;;;12.08;100.00;99731.28;5050281;28;46421;-79
2021/11/28 10:58:20;;;;;;;;;9.25;6.00;;;;;12.20;100.00;99737.31;5062119;28;45565;-79
2021/11/28 11:00:45;;;;;;;;;4.25;3.00;;;;;12.35;100.00;99725.31;5049716;28;45268;-78
2021/11/28 11:03:20;;;;;;;;;5.00;5.00;;;;;12.56;100.00;99726.00;5065209;28;45588;-78
2021/11/28 11:05:47;;;;;;;;;8.50;5.00;;;;;12.34;100.00;99726.28;5064490;28;45521;-77
2021/11/28 11:08:16;;;;;;;;;5.50;4.50;;;;;12.42;100.00;99726.41;5056674;28;46338;-78
2021/11/28 11:10:47;;;;;;;;;9.00;5.00;;;;;12.53;100.00;99731.56;5060439;28;45454;-79
2021/11/28 11:13:16;;;;;;;;;8.50;5.50;;;;;12.74;100.00;99726.97;5060101;28;45572;-79
2021/11/28 11:15:45;;;;;;;;;10.00;5.00;;;;;12.53;100.00;99725.44;5061860;28;46822;-78
2021/11/28 11:18:18;;;;;;;;;4.50;4.50;;;;;12.63;100.00;99723.63;5058982;28;45365;-79
2021/11/28 11:20:47;;;;;;;;;8.50;6.00;;;;;12.72;100.00;99731.56;5062295;28;45493;-79
2021/11/28 11:23:37;;;;;;;;;10.75;6.50;;;;;12.94;100.00;99732.19;5058924;28;45454;-79
2021/11/28 11:26:24;;;;;;;;;6.00;3.50;;;;;12.85;100.00;99723.28;5059917;28;45372;-80
2021/11/28 11:29:11;;;;;;;;;6.50;3.00;;;;;12.89;100.00;99719.38;5060140;28;45457;-79